createdAt,value
2022-09-05T00:01:53.032Z,29.20
2022-09-05T00:07:03.230Z,29.20
2022-09-05T00:12:11.115Z,29.20
2022-09-05T00:17:27.808Z,29.20
2022-09-05T00:24:35.901Z,29.10
2022-09-05T00:28:26.786Z,29.10
2022-09-05T00:33:37.903Z,29.10
2022-09-05T00:38:52.550Z,29.10
2022-09-05T00:43:58.365Z,29.10
2022-09-05T00:49:16.930Z,29.00
2022-09-05T00:54:41.073Z,29.00
2022-09-05T01:00:17.686Z,29.00
2022-09-05T01:05:40.790Z,28.90
2022-09-05T01:10:51.385Z,28.90
2022-09-05T01:16:02.568Z,28.90
2022-09-05T01:21:33.695Z,28.80
2022-09-05T01:26:58.579Z,28.80
2022-09-05T01:32:27.392Z,28.80
2022-09-05T01:37:37.514Z,28.80
2022-09-05T01:42:48.808Z,28.80
2022-09-05T01:48:03.336Z,28.70
2022-09-05T01:53:25.789Z,28.70
2022-09-05T01:58:45.488Z,28.70
2022-09-05T02:04:00.704Z,28.70
2022-09-05T02:09:27.490Z,28.70
2022-09-05T02:14:39.294Z,28.70
2022-09-05T02:19:50.982Z,28.70
2022-09-05T02:25:30.236Z,28.60
2022-09-05T02:30:35.775Z,28.60
2022-09-05T02:35:48.621Z,28.60
2022-09-05T02:45:12.045Z,28.60
2022-09-05T02:46:33.085Z,28.60
2022-09-05T02:57:34.202Z,28.60
2022-09-05T02:57:46.439Z,28.60
2022-09-05T03:03:10.025Z,28.60
2022-09-05T03:08:46.748Z,28.60
2022-09-05T03:14:23.655Z,28.60
2022-09-05T03:20:12.203Z,28.60
2022-09-05T03:25:37.751Z,28.60
2022-09-05T03:30:59.186Z,28.50
2022-09-05T03:36:31.245Z,28.60
2022-09-05T03:41:54.298Z,28.60
2022-09-05T03:47:35.721Z,28.60
2022-09-05T03:57:05.553Z,28.60
2022-09-05T03:59:13.342Z,28.60
2022-09-05T04:08:15.589Z,28.50
2022-09-05T04:09:58.943Z,28.50
2022-09-05T04:15:07.586Z,28.50
2022-09-05T04:20:19.464Z,28.50
2022-09-05T04:25:33.688Z,28.50
2022-09-05T04:30:45.573Z,28.40
2022-09-05T04:35:57.459Z,28.40
2022-09-05T04:41:03.573Z,28.40
2022-09-05T04:46:20.064Z,28.30
2022-09-05T04:52:01.718Z,28.10
2022-09-05T04:57:23.873Z,27.90
2022-09-05T05:06:17.111Z,27.60
2022-09-05T05:08:03.072Z,27.40
2022-09-05T05:18:04.180Z,27.20
2022-09-05T05:18:55.974Z,27.00
2022-09-05T05:24:14.371Z,26.80
2022-09-05T05:29:21.886Z,26.50
2022-09-05T05:34:28.814Z,26.30
2022-09-05T05:39:36.379Z,26.20
2022-09-05T05:44:40.166Z,26.10
2022-09-05T05:49:51.385Z,26.00
2022-09-05T05:55:50.715Z,25.90
2022-09-05T06:00:52.034Z,25.90
2022-09-05T06:06:21.767Z,25.90
2022-09-05T06:14:56.254Z,25.90
2022-09-05T06:17:32.959Z,25.90
2022-09-05T06:23:16.574Z,26.00
2022-09-05T06:28:46.978Z,26.10
2022-09-05T06:34:12.911Z,26.10
2022-09-05T06:39:53.790Z,26.10
2022-09-05T06:45:30.646Z,26.10
2022-09-05T06:51:07.441Z,26.10
2022-09-05T06:56:40.188Z,26.20
2022-09-05T07:01:59.665Z,26.30
2022-09-05T07:07:13.747Z,26.30
2022-09-05T07:12:29.977Z,26.30
2022-09-05T07:18:08.941Z,26.30
2022-09-05T07:24:05.556Z,26.40
2022-09-05T07:28:46.393Z,26.40
2022-09-05T07:33:51.951Z,26.50
2022-09-05T07:39:27.426Z,26.50
2022-09-05T07:44:30.875Z,26.60
2022-09-05T07:49:36.615Z,26.60
2022-09-05T07:56:52.162Z,26.70
2022-09-05T08:00:26.728Z,26.90
2022-09-05T08:05:40.385Z,27.10
2022-09-05T08:11:25.702Z,27.20
2022-09-05T08:16:17.210Z,27.20
2022-09-05T08:21:26.988Z,27.30
2022-09-05T08:26:38.493Z,27.40
2022-09-05T08:31:46.536Z,27.50
2022-09-05T08:36:51.167Z,27.50
2022-09-05T08:42:21.144Z,27.60
2022-09-05T08:47:33.118Z,27.70
2022-09-05T08:52:58.084Z,27.90
2022-09-05T08:58:16.649Z,28.00
2022-09-05T09:03:26.425Z,28.20
2022-09-05T09:08:38.539Z,28.40
2022-09-05T09:13:52.560Z,28.50
2022-09-05T09:19:10.379Z,28.60
2022-09-05T09:24:26.193Z,28.70
2022-09-05T09:29:34.855Z,28.80
2022-09-05T09:34:49.460Z,29.00
2022-09-05T09:40:25.683Z,29.20
2022-09-05T09:45:41.456Z,29.40
2022-09-05T09:51:08.559Z,29.50
2022-09-05T09:56:40.510Z,29.70
2022-09-05T10:01:53.519Z,29.70
2022-09-05T10:10:51.893Z,29.80
2022-09-05T10:13:28.829Z,30.00
2022-09-05T10:18:49.854Z,30.30
2022-09-05T10:24:12.861Z,30.50
2022-09-05T10:29:38.493Z,30.80
2022-09-05T10:35:13.967Z,31.00
2022-09-05T10:40:14.398Z,31.20
2022-09-05T10:45:30.225Z,31.40
2022-09-05T10:50:45.917Z,31.70
2022-09-05T10:56:02.032Z,31.90
2022-09-05T11:02:23.065Z,32.10
2022-09-05T11:06:52.609Z,32.30
2022-09-05T11:12:07.034Z,32.50
2022-09-05T11:17:19.955Z,32.60
2022-09-05T11:22:28.457Z,32.70
2022-09-05T11:27:36.531Z,32.70
2022-09-05T11:39:45.768Z,32.70
2022-09-05T11:40:09.522Z,32.60
2022-09-05T11:44:34.773Z,32.60
2022-09-05T11:49:58.313Z,32.50
2022-09-05T11:55:35.024Z,32.50
2022-09-05T12:00:43.321Z,32.50
2022-09-05T12:06:03.799Z,32.50
2022-09-05T12:11:21.759Z,32.40
2022-09-05T12:16:55.377Z,32.40
2022-09-05T12:22:23.661Z,32.40
2022-09-05T12:27:41.322Z,32.40
2022-09-05T12:36:03.895Z,32.40
2022-09-05T12:40:59.314Z,32.50
2022-09-05T12:44:44.507Z,32.60
2022-09-05T12:50:03.315Z,32.60
2022-09-05T12:55:27.121Z,32.60
2022-09-05T13:03:07.067Z,32.60
2022-09-05T13:06:25.099Z,32.60
2022-09-05T13:14:52.849Z,32.50
2022-09-05T13:16:58.135Z,32.50
2022-09-05T13:22:04.084Z,32.40
2022-09-05T13:27:13.876Z,32.40
2022-09-05T13:38:00.764Z,32.40
2022-09-05T13:38:10.557Z,32.40
2022-09-05T13:43:13.046Z,32.40
2022-09-05T13:49:23.586Z,32.40
2022-09-05T13:54:33.022Z,32.50
2022-09-05T13:59:43.025Z,32.50
2022-09-05T14:05:05.843Z,32.60
2022-09-05T14:10:43.621Z,32.60
2022-09-05T14:15:54.730Z,32.70
2022-09-05T14:21:18.170Z,32.80
2022-09-05T14:26:31.802Z,32.80
2022-09-05T14:37:34.342Z,32.80
2022-09-05T14:37:45.592Z,32.80
2022-09-05T14:43:32.256Z,32.80
2022-09-05T14:49:01.570Z,32.70
2022-09-05T15:02:44.858Z,32.60
2022-09-05T15:05:11.549Z,32.50
2022-09-05T15:12:15.725Z,32.40
2022-09-05T15:16:09.837Z,32.30
2022-09-05T15:21:33.376Z,32.20
2022-09-05T15:26:52.728Z,32.10
2022-09-05T15:32:15.341Z,32.10
2022-09-05T15:37:31.694Z,31.90
2022-09-05T15:42:38.376Z,31.90
2022-09-05T15:48:00.889Z,31.80
2022-09-05T15:53:04.155Z,31.70
2022-09-05T15:58:10.446Z,31.70
2022-09-05T16:04:42.178Z,31.60
2022-09-05T16:10:57.842Z,31.60
2022-09-05T16:14:21.236Z,31.50
2022-09-05T16:23:15.339Z,31.50
2022-09-05T16:24:59.212Z,31.40
2022-09-05T16:30:06.986Z,31.40
2022-09-05T16:35:26.362Z,31.30
2022-09-05T16:40:33.165Z,31.20
2022-09-05T16:45:45.816Z,31.20
2022-09-05T16:50:54.638Z,31.10
2022-09-05T16:56:03.663Z,31.10
2022-09-05T17:01:24.279Z,31.00
2022-09-05T17:06:40.496Z,31.00
2022-09-05T17:12:00.759Z,30.90
2022-09-05T17:18:12.790Z,30.90
2022-09-05T17:28:54.086Z,30.90
2022-09-05T17:29:28.936Z,31.00
2022-09-05T17:33:40.270Z,31.00
2022-09-05T17:39:08.457Z,31.00
2022-09-05T17:44:19.462Z,30.90
2022-09-05T17:49:45.246Z,30.90
2022-09-05T17:54:52.343Z,30.90
2022-09-05T17:59:55.753Z,30.90
2022-09-05T18:05:01.341Z,30.90
2022-09-05T18:10:14.936Z,30.80
2022-09-05T18:15:22.680Z,30.80
2022-09-05T18:20:51.398Z,30.80
2022-09-05T18:26:03.605Z,30.70
2022-09-05T18:31:58.985Z,30.70
2022-09-05T18:37:42.160Z,30.70
2022-09-05T18:42:53.095Z,30.50
2022-09-05T18:47:59.470Z,30.50
2022-09-05T18:53:13.122Z,30.50
2022-09-05T18:58:26.740Z,30.50
2022-09-05T19:03:33.476Z,30.40
2022-09-05T19:08:44.778Z,30.40
2022-09-05T19:13:49.953Z,30.30
2022-09-05T19:19:16.681Z,30.30
2022-09-05T19:24:28.316Z,30.30
2022-09-05T19:36:46.723Z,30.20
2022-09-05T19:36:51.933Z,30.20
2022-09-05T19:44:41.347Z,30.10
2022-09-05T19:47:36.963Z,30.10
2022-09-05T19:51:36.876Z,30.00
2022-09-05T19:56:44.463Z,30.00
2022-09-05T20:01:49.053Z,29.90
2022-09-05T20:06:52.492Z,29.80
2022-09-05T20:11:59.951Z,29.80
2022-09-05T20:17:22.305Z,29.70
2022-09-05T20:22:49.154Z,29.60
2022-09-05T20:27:54.437Z,29.60
2022-09-05T20:33:01.629Z,29.50
2022-09-05T20:43:23.234Z,29.40
2022-09-05T20:43:55.885Z,29.40
2022-09-05T20:54:16.439Z,29.30
2022-09-05T20:54:39.318Z,29.20
2022-09-05T20:59:48.228Z,29.10
2022-09-05T21:05:21.280Z,29.10
2022-09-05T21:10:28.517Z,29.00
2022-09-05T21:15:52.648Z,29.00
2022-09-05T21:20:58.815Z,28.90
2022-09-05T21:26:03.919Z,28.90
2022-09-05T21:31:15.989Z,28.90
2022-09-05T21:36:19.746Z,28.90
2022-09-05T21:41:22.922Z,28.90
2022-09-05T21:47:43.876Z,28.90
2022-09-05T21:51:51.882Z,28.90
2022-09-05T21:59:19.389Z,28.90
2022-09-05T22:02:22.654Z,28.80
2022-09-05T22:07:32.310Z,28.90
2022-09-05T22:12:39.085Z,28.80
2022-09-05T22:17:44.569Z,28.80
2022-09-05T22:22:56.804Z,28.80
2022-09-05T22:28:06.436Z,28.80
2022-09-05T22:33:13.003Z,28.80
2022-09-05T22:38:19.921Z,28.80
2022-09-05T22:43:23.395Z,28.70
2022-09-05T22:48:29.937Z,28.70
2022-09-05T22:53:33.318Z,28.60
2022-09-05T22:58:39.252Z,28.50
2022-09-05T23:03:43.909Z,28.40
2022-09-05T23:08:47.125Z,28.40
2022-09-05T23:13:50.335Z,28.30
2022-09-05T23:18:54.944Z,28.30
2022-09-05T23:23:58.180Z,28.20
2022-09-05T23:29:01.496Z,28.10
2022-09-05T23:34:06.523Z,28.00
2022-09-05T23:39:09.819Z,28.00
2022-09-05T23:44:13.034Z,27.90
2022-09-05T23:49:17.802Z,27.90
2022-09-05T23:54:20.996Z,27.80
2022-09-05T23:59:24.135Z,27.80
